Time;durP1;ratioP1;P1;durP2;ratioP2;P2;SDS_P1;SDS_P2;PMS_P1;PMS_P2;Temp;Humidity;BMP_temperature;BMP_pressure;BME280_temperature;BME280_humidity;BME280_pressure;Samples;Min_cycle;Max_cycle;Signal;HPM_P1;HPM_P2
2021/12/15 00:00:57;;;;;;;;;;;23.00;51.40;;;;;;5113111;28;19923;-49
2021/12/15 00:03:25;;;;;;;;;;;23.00;51.40;;;;;;5114145;28;19924;-50
2021/12/15 00:05:52;;;;;;;;;;;23.00;51.40;;;;;;5113869;28;19931;-48
2021/12/15 00:08:20;;;;;;;;;;;23.00;52.00;;;;;;5113836;28;19931;-47
2021/12/15 00:10:48;;;;;;;;;;;23.00;51.40;;;;;;5113838;28;19924;-53
2021/12/15 00:13:16;;;;;;;;;;;23.00;51.40;;;;;;5113763;28;19923;-51
2021/12/15 00:15:44;;;;;;;;;;;23.00;51.40;;;;;;5112528;28;19928;-51
2021/12/15 00:18:11;;;;;;;;;;;23.00;51.40;;;;;;5114045;28;20331;-46
2021/12/15 00:20:39;;;;;;;;;;;23.00;51.40;;;;;;5113528;28;19931;-52
2021/12/15 00:23:06;;;;;;;;;;;23.00;51.40;;;;;;5113430;28;19976;-49
2021/12/15 00:25:35;;;;;;;;;;;23.00;51.40;;;;;;5113983;28;19934;-45
2021/12/15 00:28:03;;;;;;;;;;;23.00;51.50;;;;;;5113956;28;20287;-50
2021/12/15 00:30:30;;;;;;;;;;;23.00;51.50;;;;;;5116429;27;19930;-57
2021/12/15 00:32:57;;;;;;;;;;;23.00;51.50;;;;;;5117749;28;20101;-45
2021/12/15 00:35:24;;;;;;;;;;;23.00;51.50;;;;;;5117573;28;19969;-50
2021/12/15 00:37:52;;;;;;;;;;;23.00;52.10;;;;;;5117338;28;19924;-50
2021/12/15 00:40:21;;;;;;;;;;;22.90;51.40;;;;;;5117594;28;19981;-51
2021/12/15 00:42:48;;;;;;;;;;;22.90;51.40;;;;;;5117164;28;19924;-52
2021/12/15 00:45:15;;;;;;;;;;;22.90;51.40;;;;;;5116252;28;20284;-50
2021/12/15 00:47:44;;;;;;;;;;;22.90;51.40;;;;;;5117465;28;19998;-52
2021/12/15 00:50:12;;;;;;;;;;;22.90;51.40;;;;;;5118205;28;19924;-46
2021/12/15 00:52:41;;;;;;;;;;;22.90;51.40;;;;;;5116835;28;19923;-50
2021/12/15 00:55:09;;;;;;;;;;;22.90;51.50;;;;;;5116973;28;19924;-51
2021/12/15 00:57:36;;;;;;;;;;;22.90;51.40;;;;;;5116935;28;19928;-46
2021/12/15 01:00:05;;;;;;;;;;;22.90;51.40;;;;;;5098298;27;19936;-47
2021/12/15 01:02:32;;;;;;;;;;;22.90;51.40;;;;;;5099306;28;19928;-48
2021/12/15 01:04:59;;;;;;;;;;;22.90;51.50;;;;;;5098886;28;20374;-50
2021/12/15 01:07:26;;;;;;;;;;;22.90;51.40;;;;;;5116789;28;20401;-55
2021/12/15 01:09:56;;;;;;;;;;;22.90;51.50;;;;;;5116724;28;19924;-52
2021/12/15 01:20:21;;;;;;;;;;;22.90;51.50;;;;;;5116510;28;19997;-48
2021/12/15 01:22:49;;;;;;;;;;;22.90;51.50;;;;;;5116750;28;19924;-55
2021/12/15 01:25:16;;;;;;;;;;;22.90;51.50;;;;;;5116720;28;19977;-49
2021/12/15 01:27:44;;;;;;;;;;;22.90;51.50;;;;;;5116687;28;19927;-54
2021/12/15 01:30:13;;;;;;;;;;;22.90;51.50;;;;;;5096972;28;20452;-52
2021/12/15 01:32:41;;;;;;;;;;;22.90;51.50;;;;;;5116263;28;20337;-55
2021/12/15 01:35:09;;;;;;;;;;;22.90;51.50;;;;;;5116219;28;19924;-52
2021/12/15 01:37:36;;;;;;;;;;;22.90;51.50;;;;;;5116492;28;19924;-47
2021/12/15 01:40:04;;;;;;;;;;;22.90;51.50;;;;;;5115704;28;19924;-52
2021/12/15 01:42:33;;;;;;;;;;;22.90;51.50;;;;;;5097949;28;19928;-50
2021/12/15 01:47:46;;;;;;;;;;;22.90;51.50;;;;;;5116346;28;20280;-47
2021/12/15 01:50:13;;;;;;;;;;;22.80;51.40;;;;;;5115953;28;19984;-52
2021/12/15 01:52:41;;;;;;;;;;;22.80;51.40;;;;;;5116081;28;20294;-56
2021/12/15 01:55:10;;;;;;;;;;;22.80;51.50;;;;;;5115861;28;19924;-55
2021/12/15 01:57:38;;;;;;;;;;;22.80;51.50;;;;;;5115784;28;19924;-47
2021/12/15 02:00:10;;;;;;;;;;;22.80;51.50;;;;;;5116028;28;20359;-45
2021/12/15 02:02:37;;;;;;;;;;;22.80;51.50;;;;;;5114810;28;19967;-50
2021/12/15 02:05:04;;;;;;;;;;;22.80;51.50;;;;;;5115935;28;19970;-46
2021/12/15 02:07:32;;;;;;;;;;;22.80;51.50;;;;;;5115561;28;20071;-51
2021/12/15 02:12:46;;;;;;;;;;;22.80;51.50;;;;;;5115489;28;19966;-54
2021/12/15 02:15:18;;;;;;;;;;;22.80;51.50;;;;;;5115315;28;20015;-55
2021/12/15 02:17:46;;;;;;;;;;;22.80;51.50;;;;;;5114801;27;19928;-52
2021/12/15 02:20:14;;;;;;;;;;;22.80;51.50;;;;;;5115402;28;19969;-55
2021/12/15 02:22:42;;;;;;;;;;;22.80;51.50;;;;;;5115532;28;19953;-52
2021/12/15 02:25:12;;;;;;;;;;;22.80;52.10;;;;;;5115208;28;19969;-54
2021/12/15 02:27:40;;;;;;;;;;;22.80;51.50;;;;;;5116343;28;19924;-55
2021/12/15 02:30:22;;;;;;;;;;;22.80;51.50;;;;;;5115433;28;19923;-50
2021/12/15 02:38:04;;;;;;;;;;;22.80;51.50;;;;;;5115336;28;20074;-54
2021/12/15 02:40:32;;;;;;;;;;;22.80;51.50;;;;;;5115273;28;20334;-50
2021/12/15 02:42:59;;;;;;;;;;;22.80;51.50;;;;;;5116001;28;19977;-53
2021/12/15 02:45:26;;;;;;;;;;;22.80;51.50;;;;;;5115042;28;19968;-55
2021/12/15 02:47:53;;;;;;;;;;;22.80;51.60;;;;;;5113669;27;19924;-53
2021/12/15 02:50:23;;;;;;;;;;;22.80;51.50;;;;;;5115101;28;20340;-55
2021/12/15 02:52:52;;;;;;;;;;;22.80;51.50;;;;;;5114133;28;19924;-52
2021/12/15 02:55:19;;;;;;;;;;;22.80;51.50;;;;;;5115562;28;19924;-51
2021/12/15 02:57:47;;;;;;;;;;;22.80;51.50;;;;;;5114997;28;19924;-54
2021/12/15 03:00:22;;;;;;;;;;;22.80;51.60;;;;;;5114614;28;19931;-50
2021/12/15 03:03:17;;;;;;;;;;;22.80;51.60;;;;;;5113287;28;19924;-51
2021/12/15 03:05:48;;;;;;;;;;;22.80;51.60;;;;;;5114513;28;19923;-52
2021/12/15 03:08:47;;;;;;;;;;;22.70;51.50;;;;;;5114848;28;19963;-55
2021/12/15 03:16:36;;;;;;;;;;;22.70;51.50;;;;;;5113471;28;19980;-54
2021/12/15 03:19:03;;;;;;;;;;;22.70;51.50;;;;;;5114459;28;19932;-54
2021/12/15 03:21:30;;;;;;;;;;;22.70;51.60;;;;;;5114339;28;19954;-54
2021/12/15 03:24:06;;;;;;;;;;;22.80;51.70;;;;;;5114043;28;19924;-47
2021/12/15 03:26:44;;;;;;;;;;;22.70;51.50;;;;;;5114293;28;19923;-52
2021/12/15 03:35:20;;;;;;;;;;;22.70;51.60;;;;;;5114197;28;19923;-56
2021/12/15 03:37:53;;;;;;;;;;;22.70;51.60;;;;;;5114484;28;20341;-49
2021/12/15 03:40:19;;;;;;;;;;;22.70;51.60;;;;;;5114441;28;19958;-50
2021/12/15 03:42:46;;;;;;;;;;;22.80;52.30;;;;;;5113978;28;19970;-49
2021/12/15 03:45:16;;;;;;;;;;;22.70;51.60;;;;;;5113956;28;19927;-49
2021/12/15 03:47:46;;;;;;;;;;;22.70;51.60;;;;;;5113104;28;19924;-50
2021/12/15 03:50:14;;;;;;;;;;;22.70;51.60;;;;;;5114325;28;20015;-51
2021/12/15 03:52:42;;;;;;;;;;;22.70;51.60;;;;;;5113818;28;19973;-52
2021/12/15 03:55:10;;;;;;;;;;;22.70;51.60;;;;;;5113984;28;19924;-48
2021/12/15 03:57:37;;;;;;;;;;;22.70;51.60;;;;;;5114817;28;19977;-46
2021/12/15 04:00:05;;;;;;;;;;;22.70;51.60;;;;;;5113937;28;19924;-45
2021/12/15 04:02:33;;;;;;;;;;;22.70;51.60;;;;;;5113245;28;19927;-49
2021/12/15 04:05:00;;;;;;;;;;;22.70;51.60;;;;;;5118546;28;19989;-50
2021/12/15 04:07:27;;;;;;;;;;;22.70;51.60;;;;;;5117929;28;19945;-52
2021/12/15 04:09:54;;;;;;;;;;;22.70;51.60;;;;;;5118198;28;19973;-55
2021/12/15 04:12:22;;;;;;;;;;;22.70;51.60;;;;;;5118149;28;19997;-50
2021/12/15 04:14:56;;;;;;;;;;;22.70;51.60;;;;;;5118005;28;20329;-46
2021/12/15 04:17:26;;;;;;;;;;;22.70;51.60;;;;;;5099891;28;19924;-50
2021/12/15 04:19:55;;;;;;;;;;;22.70;51.70;;;;;;5117543;28;19924;-56
2021/12/15 04:22:23;;;;;;;;;;;22.70;51.60;;;;;;5117467;28;19924;-53
2021/12/15 04:24:51;;;;;;;;;;;22.70;51.70;;;;;;5117832;28;19927;-46
2021/12/15 04:27:20;;;;;;;;;;;22.70;51.70;;;;;;5117854;28;19985;-47
2021/12/15 04:29:48;;;;;;;;;;;22.70;51.80;;;;;;5117509;28;19977;-54
2021/12/15 04:32:19;;;;;;;;;;;22.70;51.70;;;;;;5116438;27;19928;-53
2021/12/15 04:34:47;;;;;;;;;;;22.70;51.70;;;;;;5117703;28;19969;-51
2021/12/15 04:37:14;;;;;;;;;;;22.70;51.70;;;;;;5117675;28;19951;-49
2021/12/15 04:39:41;;;;;;;;;;;22.70;51.70;;;;;;5117313;28;20358;-55
2021/12/15 04:42:08;;;;;;;;;;;22.70;51.70;;;;;;5117296;28;19973;-53
2021/12/15 04:44:35;;;;;;;;;;;22.70;51.70;;;;;;5117341;28;19928;-50
2021/12/15 04:47:08;;;;;;;;;;;22.70;51.70;;;;;;5117194;27;19923;-49
2021/12/15 04:49:43;;;;;;;;;;;22.70;51.70;;;;;;5137668;27;20423;-52
2021/12/15 04:52:11;;;;;;;;;;;22.60;51.70;;;;;;5137549;27;19930;-55
2021/12/15 04:54:38;;;;;;;;;;;22.60;51.70;;;;;;5137906;27;19924;-48
2021/12/15 04:57:07;;;;;;;;;;;22.60;51.70;;;;;;5137905;27;19927;-50
2021/12/15 04:59:34;;;;;;;;;;;22.60;51.70;;;;;;5119339;27;19927;-47
2021/12/15 05:02:02;;;;;;;;;;;22.60;51.70;;;;;;5137771;27;19927;-51
2021/12/15 05:04:30;;;;;;;;;;;22.70;51.80;;;;;;5116784;27;19979;-52
2021/12/15 05:06:57;;;;;;;;;;;22.60;51.70;;;;;;5116820;28;19924;-54
2021/12/15 05:09:24;;;;;;;;;;;22.60;51.70;;;;;;5116752;28;19923;-51
2021/12/15 05:11:53;;;;;;;;;;;22.60;51.70;;;;;;5116691;28;19924;-48
2021/12/15 05:14:22;;;;;;;;;;;22.60;51.70;;;;;;5097804;28;19972;-51
2021/12/15 05:16:50;;;;;;;;;;;22.60;51.70;;;;;;5116781;28;20299;-57
2021/12/15 05:19:17;;;;;;;;;;;22.60;51.70;;;;;;5115818;27;19965;-47
2021/12/15 05:21:44;;;;;;;;;;;22.60;51.70;;;;;;5116822;28;19928;-51
2021/12/15 05:24:30;;;;;;;;;;;22.60;51.70;;;;;;5116196;28;19977;-49
2021/12/15 05:26:59;;;;;;;;;;;22.60;51.70;;;;;;5116750;28;19924;-55
2021/12/15 05:29:26;;;;;;;;;;;22.60;51.70;;;;;;5116599;28;19937;-55
2021/12/15 05:31:54;;;;;;;;;;;22.60;51.70;;;;;;5116300;28;20043;-56
2021/12/15 05:34:21;;;;;;;;;;;22.60;51.70;;;;;;5115586;27;19967;-56
2021/12/15 05:36:52;;;;;;;;;;;22.60;51.70;;;;;;5098200;28;19945;-52
2021/12/15 05:39:20;;;;;;;;;;;22.60;51.70;;;;;;5117335;28;19962;-47
2021/12/15 05:41:47;;;;;;;;;;;22.60;51.70;;;;;;5116126;28;20371;-48
2021/12/15 05:44:15;;;;;;;;;;;22.60;51.70;;;;;;5115995;28;19989;-54
2021/12/15 05:46:42;;;;;;;;;;;22.60;51.70;;;;;;5116179;28;19924;-53
2021/12/15 05:49:09;;;;;;;;;;;22.60;51.80;;;;;;5115359;27;19928;-48
2021/12/15 05:51:37;;;;;;;;;;;22.60;51.70;;;;;;5116536;28;19974;-47
2021/12/15 05:54:05;;;;;;;;;;;22.60;51.70;;;;;;5115849;28;19971;-58
2021/12/15 05:56:32;;;;;;;;;;;22.60;51.70;;;;;;5115824;28;19927;-52
2021/12/15 05:59:00;;;;;;;;;;;22.60;51.70;;;;;;5115792;28;19924;-55
2021/12/15 06:01:28;;;;;;;;;;;22.60;51.80;;;;;;5116303;28;19931;-49
2021/12/15 06:03:55;;;;;;;;;;;22.60;51.80;;;;;;5114450;28;19972;-52
2021/12/15 06:06:23;;;;;;;;;;;22.60;51.80;;;;;;5115937;28;19923;-53
2021/12/15 06:08:50;;;;;;;;;;;22.50;51.70;;;;;;5115873;28;19923;-50
2021/12/15 06:11:18;;;;;;;;;;;22.50;51.70;;;;;;5116123;28;20282;-52
2021/12/15 06:13:50;;;;;;;;;;;22.50;51.70;;;;;;5115467;28;19928;-58
2021/12/15 06:16:18;;;;;;;;;;;22.50;51.70;;;;;;5115257;28;19975;-52
2021/12/15 06:18:47;;;;;;;;;;;22.50;51.70;;;;;;5114039;28;20413;-51
2021/12/15 06:21:15;;;;;;;;;;;22.50;51.70;;;;;;5115640;28;19988;-55
2021/12/15 06:23:42;;;;;;;;;;;22.50;51.70;;;;;;5115320;28;19967;-52
2021/12/15 06:26:09;;;;;;;;;;;22.50;51.80;;;;;;5114456;28;19924;-52
2021/12/15 06:28:37;;;;;;;;;;;22.50;51.80;;;;;;5115505;28;19955;-48
2021/12/15 06:31:06;;;;;;;;;;;22.50;51.80;;;;;;5115134;28;20383;-54
2021/12/15 06:33:34;;;;;;;;;;;22.50;51.80;;;;;;5113961;28;19977;-57
2021/12/15 06:36:04;;;;;;;;;;;22.50;51.80;;;;;;5115069;28;19928;-50
2021/12/15 06:38:34;;;;;;;;;;;22.50;51.80;;;;;;5115330;28;19923;-52
2021/12/15 06:41:02;;;;;;;;;;;22.50;51.80;;;;;;5097244;28;20292;-53
2021/12/15 06:43:29;;;;;;;;;;;22.50;51.80;;;;;;5115091;28;19923;-49
2021/12/15 06:59:43;;;;;;;;;;;22.50;51.80;;;;;;5114899;28;19966;-50
2021/12/15 07:02:10;;;;;;;;;;;22.50;51.80;;;;;;5114560;28;19978;-51
2021/12/15 07:04:37;;;;;;;;;;;22.50;51.80;;;;;;5095376;28;19931;-53
2021/12/15 07:07:05;;;;;;;;;;;22.50;51.80;;;;;;5114496;28;19934;-46
2021/12/15 07:09:33;;;;;;;;;;;22.50;51.80;;;;;;5114627;28;19928;-49
2021/12/15 07:12:02;;;;;;;;;;;22.50;51.80;;;;;;5114307;28;19923;-53
2021/12/15 07:14:30;;;;;;;;;;;22.50;51.90;;;;;;5114498;28;19928;-52
2021/12/15 07:16:58;;;;;;;;;;;22.50;51.80;;;;;;5114677;28;19968;-45
2021/12/15 07:22:10;;;;;;;;;;;22.50;51.80;;;;;;5114622;28;19928;-58
2021/12/15 07:24:38;;;;;;;;;;;22.50;51.80;;;;;;5114239;28;19924;-48
2021/12/15 07:27:05;;;;;;;;;;;22.50;51.80;;;;;;5114213;28;19935;-48
2021/12/15 07:29:33;;;;;;;;;;;22.50;51.80;;;;;;5114502;28;19924;-46
2021/12/15 07:32:00;;;;;;;;;;;22.50;51.80;;;;;;5117828;28;20390;-50
2021/12/15 07:34:28;;;;;;;;;;;22.50;51.80;;;;;;5099882;28;19924;-51
2021/12/15 07:36:55;;;;;;;;;;;22.50;51.80;;;;;;5115104;28;19931;-49
2021/12/15 07:39:22;;;;;;;;;;;22.50;51.80;;;;;;5114468;28;19930;-49
2021/12/15 07:42:02;;;;;;;;;;;22.50;51.80;;;;;;5097082;28;19928;-50
2021/12/15 07:44:29;;;;;;;;;;;22.50;51.80;;;;;;5114059;28;19924;-54
2021/12/15 07:46:56;;;;;;;;;;;22.50;51.80;;;;;;5113846;28;19924;-51
2021/12/15 07:49:24;;;;;;;;;;;22.50;51.80;;;;;;5112605;28;19937;-55
2021/12/15 07:51:59;;;;;;;;;;;22.50;51.80;;;;;;5113921;28;19923;-57
2021/12/15 07:54:36;;;;;;;;;;;22.50;51.80;;;;;;5114117;28;19976;-49
2021/12/15 07:57:07;;;;;;;;;;;22.50;51.80;;;;;;5113993;28;19961;-49
2021/12/15 07:59:34;;;;;;;;;;;22.50;51.80;;;;;;5114026;28;19924;-50
2021/12/15 08:02:01;;;;;;;;;;;22.50;51.80;;;;;;5114200;28;19924;-52
2021/12/15 08:04:29;;;;;;;;;;;22.50;51.80;;;;;;5113488;28;19959;-49
2021/12/15 08:06:56;;;;;;;;;;;22.50;51.80;;;;;;5114128;28;19923;-50
2021/12/15 08:09:23;;;;;;;;;;;22.50;51.80;;;;;;5096113;28;19923;-53
2021/12/15 08:11:50;;;;;;;;;;;22.50;51.80;;;;;;5114106;28;19931;-47
2021/12/15 08:14:18;;;;;;;;;;;22.50;51.80;;;;;;5114100;28;19923;-48
2021/12/15 08:16:45;;;;;;;;;;;22.50;51.80;;;;;;5113630;28;19931;-55
2021/12/15 08:19:15;;;;;;;;;;;22.50;51.80;;;;;;5113227;28;20447;-52
2021/12/15 08:21:44;;;;;;;;;;;22.50;51.70;;;;;;5113489;28;19927;-51
2021/12/15 08:24:11;;;;;;;;;;;22.50;51.70;;;;;;5113732;28;20325;-52
2021/12/15 08:26:39;;;;;;;;;;;22.50;51.70;;;;;;5113959;28;19923;-53
2021/12/15 08:29:06;;;;;;;;;;;22.50;51.70;;;;;;5114023;28;20336;-53
2021/12/15 08:31:32;;;;;;;;;;;22.50;51.70;;;;;;5113789;28;20295;-50
2021/12/15 08:34:00;;;;;;;;;;;22.50;51.70;;;;;;5096309;28;19924;-48
2021/12/15 08:36:27;;;;;;;;;;;22.50;51.70;;;;;;5095289;28;19924;-55
2021/12/15 08:38:54;;;;;;;;;;;22.50;51.70;;;;;;5113919;28;20367;-52
2021/12/15 08:41:26;;;;;;;;;;;22.50;51.70;;;;;;5113845;28;19924;-55
2021/12/15 08:43:53;;;;;;;;;;;22.50;51.70;;;;;;5113416;28;19975;-58
2021/12/15 08:46:26;;;;;;;;;;;22.50;51.60;;;;;;5113709;28;20336;-51
2021/12/15 08:48:53;;;;;;;;;;;22.50;51.60;;;;;;5113475;28;20348;-57
2021/12/15 08:51:25;;;;;;;;;;;22.50;51.60;;;;;;5115915;27;19992;-51
2021/12/15 08:53:57;;;;;;;;;;;22.60;51.70;;;;;;5117215;28;19947;-51
2021/12/15 08:56:24;;;;;;;;;;;22.50;51.60;;;;;;5117344;28;19977;-56
2021/12/15 08:58:53;;;;;;;;;;;22.60;51.60;;;;;;5117301;28;19924;-53
2021/12/15 09:01:20;;;;;;;;;;;22.60;51.60;;;;;;5116900;28;19931;-51
2021/12/15 09:03:48;;;;;;;;;;;22.60;51.60;;;;;;5116855;28;19931;-51
2021/12/15 09:06:15;;;;;;;;;;;22.60;51.60;;;;;;5116099;27;20018;-51
2021/12/15 09:08:44;;;;;;;;;;;22.60;51.50;;;;;;5117068;28;19923;-49
2021/12/15 09:11:14;;;;;;;;;;;22.60;51.50;;;;;;5116713;28;19924;-50
2021/12/15 09:13:43;;;;;;;;;;;22.60;51.50;;;;;;5116973;28;19928;-55
2021/12/15 09:16:11;;;;;;;;;;;22.60;51.50;;;;;;5116763;28;19985;-54
2021/12/15 09:18:39;;;;;;;;;;;22.60;51.50;;;;;;5116430;28;19973;-50
2021/12/15 09:21:06;;;;;;;;;;;22.60;51.40;;;;;;5115888;27;20373;-56
2021/12/15 09:23:34;;;;;;;;;;;22.60;51.40;;;;;;5116501;28;19924;-54
2021/12/15 09:26:01;;;;;;;;;;;22.60;51.40;;;;;;5116299;28;19924;-50
2021/12/15 09:28:30;;;;;;;;;;;22.60;51.40;;;;;;5116576;28;19924;-55
2021/12/15 09:30:57;;;;;;;;;;;22.60;51.40;;;;;;5116516;28;20027;-47
2021/12/15 09:33:25;;;;;;;;;;;22.60;51.40;;;;;;5116845;28;19965;-48
2021/12/15 09:35:53;;;;;;;;;;;22.70;51.50;;;;;;5115383;27;19984;-49
2021/12/15 09:38:22;;;;;;;;;;;22.60;51.40;;;;;;5116210;28;20372;-49
2021/12/15 09:40:50;;;;;;;;;;;22.60;51.40;;;;;;5116164;28;19930;-48
2021/12/15 09:43:17;;;;;;;;;;;22.60;51.40;;;;;;5116455;28;19924;-53
2021/12/15 09:45:55;;;;;;;;;;;22.60;51.40;;;;;;5116148;28;19924;-49
2021/12/15 10:19:34;;;;;;;;;;;22.70;51.40;;;;;;5032225;28;19956;-53
2021/12/15 10:22:13;;;;;;;;;;;22.70;51.30;;;;;;5016279;28;19925;-49
2021/12/15 10:24:49;;;;;;;;;;;22.70;51.30;;;;;;5032727;28;19925;-57
2021/12/15 10:27:19;;;;;;;;;;;22.70;51.30;;;;;;5032766;28;19932;-49
2021/12/15 10:30:10;;;;;;;;;;;22.70;51.30;;;;;;5033752;28;19929;-49
2021/12/15 10:32:40;;;;;;;;;;;22.70;51.30;;;;;;5032646;28;20340;-54
2021/12/15 10:35:12;;;;;;;;;;;22.70;51.20;;;;;;5032676;28;20020;-47
2021/12/15 10:37:40;;;;;;;;;;;22.70;51.20;;;;;;5048123;28;19979;-57
2021/12/15 10:40:18;;;;;;;;;;;22.70;51.20;;;;;;5052594;28;19925;-56
2021/12/15 10:42:46;;;;;;;;;;;22.70;51.20;;;;;;5052646;28;19924;-52
2021/12/15 10:45:14;;;;;;;;;;;22.70;51.20;;;;;;5052587;28;19978;-55
2021/12/15 10:47:43;;;;;;;;;;;22.70;51.20;;;;;;5077925;28;20371;-53
2021/12/15 10:50:11;;;;;;;;;;;22.70;51.20;;;;;;5094783;28;20296;-53
2021/12/15 10:52:56;;;;;;;;;;;22.70;51.20;;;;;;5093654;28;20287;-50
2021/12/15 10:55:31;;;;;;;;;;;22.70;51.20;;;;;;5094277;28;19931;-48
2021/12/15 10:58:00;;;;;;;;;;;22.70;51.20;;;;;;5094900;28;20260;-50
2021/12/15 11:00:32;;;;;;;;;;;22.70;51.20;;;;;;5094339;28;19924;-53
2021/12/15 11:03:04;;;;;;;;;;;22.70;51.20;;;;;;5094312;28;19977;-55
2021/12/15 11:05:32;;;;;;;;;;;22.70;51.20;;;;;;5094170;28;20387;-50
2021/12/15 11:07:59;;;;;;;;;;;22.70;51.20;;;;;;5092969;28;19924;-47
2021/12/15 11:10:31;;;;;;;;;;;22.70;51.20;;;;;;5094166;28;19928;-49
2021/12/15 11:13:00;;;;;;;;;;;22.70;51.20;;;;;;5093438;28;19971;-51
2021/12/15 11:15:32;;;;;;;;;;;22.70;51.10;;;;;;5093997;28;19923;-50
2021/12/15 11:18:16;;;;;;;;;;;22.70;51.10;;;;;;5094037;28;20019;-50
2021/12/15 11:20:43;;;;;;;;;;;22.70;51.10;;;;;;5111595;28;20420;-51
2021/12/15 11:23:12;;;;;;;;;;;22.70;51.10;;;;;;5112961;28;19923;-55
2021/12/15 11:25:45;;;;;;;;;;;22.70;51.10;;;;;;5114732;28;19930;-49
2021/12/15 11:28:15;;;;;;;;;;;22.70;51.10;;;;;;5114240;28;19924;-56
2021/12/15 11:30:42;;;;;;;;;;;22.70;51.10;;;;;;5114444;28;19931;-53
2021/12/15 11:33:10;;;;;;;;;;;22.70;51.10;;;;;;5115299;28;19924;-54
2021/12/15 11:35:46;;;;;;;;;;;22.70;51.10;;;;;;5114120;28;19924;-51
2021/12/15 11:38:16;;;;;;;;;;;22.70;51.10;;;;;;5113172;28;19923;-52
2021/12/15 11:40:45;;;;;;;;;;;22.70;51.10;;;;;;5114080;28;19959;-53
2021/12/15 11:43:45;;;;;;;;;;;22.70;51.10;;;;;;5114030;28;19968;-50
2021/12/15 11:46:30;;;;;;;;;;;22.70;51.70;;;;;;5011789;28;19925;-54
2021/12/15 11:49:03;;;;;;;;;;;22.70;51.10;;;;;;5011838;28;19972;-55
2021/12/15 11:51:33;;;;;;;;;;;22.70;51.00;;;;;;5011475;28;19992;-53
2021/12/15 11:54:01;;;;;;;;;;;22.70;51.10;;;;;;5011732;28;20420;-47
2021/12/15 11:56:31;;;;;;;;;;;22.70;51.10;;;;;;5011693;28;19988;-49
2021/12/15 11:59:12;;;;;;;;;;;22.70;51.10;;;;;;5011729;28;20083;-53
2021/12/15 12:01:41;;;;;;;;;;;22.70;51.10;;;;;;5011634;28;20374;-46
2021/12/15 12:04:14;;;;;;;;;;;22.70;51.10;;;;;;5011619;28;19940;-49
2021/12/15 12:06:41;;;;;;;;;;;22.70;51.10;;;;;;5011315;28;20477;-53
2021/12/15 12:09:08;;;;;;;;;;;22.70;51.10;;;;;;5031667;28;19939;-55
2021/12/15 12:11:40;;;;;;;;;;;22.70;51.10;;;;;;5031158;28;19925;-50
2021/12/15 12:14:18;;;;;;;;;;;22.70;51.20;;;;;;5032067;28;19929;-54
2021/12/15 12:16:45;;;;;;;;;;;22.70;51.10;;;;;;5014972;28;20032;-56
2021/12/15 12:19:13;;;;;;;;;;;22.70;51.20;;;;;;5031092;28;19925;-53
2021/12/15 12:21:41;;;;;;;;;;;22.70;51.20;;;;;;5068061;28;19930;-47
2021/12/15 12:24:11;;;;;;;;;;;22.70;51.20;;;;;;5114671;28;19924;-53
2021/12/15 12:26:38;;;;;;;;;;;22.70;51.20;;;;;;5117901;28;19923;-48
2021/12/15 12:29:06;;;;;;;;;;;22.60;51.20;;;;;;5117946;28;19931;-47
2021/12/15 12:31:35;;;;;;;;;;;22.60;51.20;;;;;;5117547;28;19923;-50
2021/12/15 12:34:02;;;;;;;;;;;22.60;51.20;;;;;;5117504;28;19923;-55
2021/12/15 12:36:31;;;;;;;;;;;22.60;51.20;;;;;;5117436;28;19972;-50
2021/12/15 12:38:59;;;;;;;;;;;22.60;51.20;;;;;;5098271;28;19927;-57
2021/12/15 12:41:29;;;;;;;;;;;22.60;51.20;;;;;;5117372;28;19928;-49
2021/12/15 12:43:58;;;;;;;;;;;22.70;51.20;;;;;;5117636;28;19924;-56
2021/12/15 12:46:41;;;;;;;;;;;22.60;51.20;;;;;;5117331;28;20367;-48
2021/12/15 12:59:58;;;;;;;;;;;22.60;51.20;;;;;;5117000;28;19924;-52
2021/12/15 13:02:34;;;;;;;;;;;22.60;51.20;;;;;;5116989;28;20387;-50
2021/12/15 13:05:01;;;;;;;;;;;22.60;51.20;;;;;;5117185;28;19924;-47
2021/12/15 13:07:44;;;;;;;;;;;22.70;51.30;;;;;;5115915;27;19928;-56
2021/12/15 13:10:11;;;;;;;;;;;22.60;51.20;;;;;;5117376;28;19988;-52
2021/12/15 13:12:47;;;;;;;;;;;22.60;51.20;;;;;;5117244;28;19928;-49
2021/12/15 13:15:19;;;;;;;;;;;22.60;51.20;;;;;;5116779;28;19923;-57
2021/12/15 13:17:54;;;;;;;;;;;22.60;51.20;;;;;;5116674;28;19923;-54
2021/12/15 13:20:25;;;;;;;;;;;22.60;51.20;;;;;;5116784;28;19924;-53
2021/12/15 13:23:31;;;;;;;;;;;22.60;51.20;;;;;;5115216;27;19977;-57
2021/12/15 13:28:49;;;;;;;;;;;22.60;51.20;;;;;;5034145;28;19929;-53
2021/12/15 13:31:22;;;;;;;;;;;22.60;51.20;;;;;;5034065;28;19929;-55
2021/12/15 13:33:52;;;;;;;;;;;22.60;51.20;;;;;;5033919;28;19925;-52
2021/12/15 13:36:19;;;;;;;;;;;22.60;51.20;;;;;;5016735;28;19928;-50
2021/12/15 13:38:46;;;;;;;;;;;22.60;51.20;;;;;;5042168;28;19992;-54
2021/12/15 13:44:00;;;;;;;;;;;22.60;51.20;;;;;;5053361;28;19925;-57
2021/12/15 13:46:38;;;;;;;;;;;22.60;51.30;;;;;;5053564;28;19935;-47
2021/12/15 13:49:05;;;;;;;;;;;22.60;51.30;;;;;;5053427;28;19932;-53
2021/12/15 13:51:50;;;;;;;;;;;22.50;51.20;;;;;;5053363;28;19978;-52
2021/12/15 13:54:32;;;;;;;;;;;22.50;51.20;;;;;;5051481;28;19929;-51
2021/12/15 13:57:14;;;;;;;;;;;22.60;51.40;;;;;;5053293;28;19925;-56
2021/12/15 13:59:43;;;;;;;;;;;22.50;51.30;;;;;;5053473;28;19925;-50
2021/12/15 14:02:10;;;;;;;;;;;22.50;51.40;;;;;;5053186;28;19925;-47
2021/12/15 14:04:41;;;;;;;;;;;22.50;51.30;;;;;;5053106;28;20364;-52
2021/12/15 14:07:34;;;;;;;;;;;22.50;51.40;;;;;;5116012;28;20000;-52
2021/12/15 14:10:24;;;;;;;;;;;22.50;51.40;;;;;;5084739;28;19965;-46
2021/12/15 14:12:52;;;;;;;;;;;22.50;51.40;;;;;;5115465;28;19972;-55
2021/12/15 14:15:25;;;;;;;;;;;22.50;51.40;;;;;;5115597;28;19924;-53
2021/12/15 14:18:18;;;;;;;;;;;22.50;51.40;;;;;;5115473;28;19924;-49
2021/12/15 14:20:48;;;;;;;;;;;22.50;51.40;;;;;;5111356;28;19931;-56
2021/12/15 14:23:18;;;;;;;;;;;22.50;51.50;;;;;;5114233;27;20336;-56
2021/12/15 14:25:45;;;;;;;;;;;22.50;51.50;;;;;;5115573;28;19927;-52
2021/12/15 14:28:15;;;;;;;;;;;22.40;51.50;;;;;;5115270;28;19924;-52
2021/12/15 14:30:44;;;;;;;;;;;22.40;51.50;;;;;;5115234;28;19924;-48
2021/12/15 14:33:18;;;;;;;;;;;22.40;51.50;;;;;;5115511;28;19924;-50
2021/12/15 14:35:45;;;;;;;;;;;22.40;51.50;;;;;;5115160;28;19924;-53
2021/12/15 14:38:11;;;;;;;;;;;22.40;51.60;;;;;;5114275;27;19924;-53
2021/12/15 14:40:43;;;;;;;;;;;22.40;51.60;;;;;;5135874;27;20366;-57
2021/12/15 14:43:12;;;;;;;;;;;22.40;51.60;;;;;;5117418;27;20386;-51
2021/12/15 14:45:39;;;;;;;;;;;22.40;51.60;;;;;;5135596;27;19927;-51
2021/12/15 14:48:16;;;;;;;;;;;22.40;51.60;;;;;;5134430;27;19923;-52
2021/12/15 14:50:44;;;;;;;;;;;22.40;51.70;;;;;;5135697;27;19923;-52
2021/12/15 14:53:11;;;;;;;;;;;22.40;51.70;;;;;;5135303;27;19924;-50
2021/12/15 14:55:38;;;;;;;;;;;22.40;51.70;;;;;;5114138;27;19928;-57
2021/12/15 14:58:09;;;;;;;;;;;22.40;51.70;;;;;;5114735;28;19930;-53
2021/12/15 15:00:39;;;;;;;;;;;22.30;51.60;;;;;;5097038;28;20294;-51
2021/12/15 15:03:08;;;;;;;;;;;22.40;51.70;;;;;;5114911;28;19931;-53
2021/12/15 15:05:37;;;;;;;;;;;22.40;51.80;;;;;;5114786;28;19928;-52
2021/12/15 15:08:07;;;;;;;;;;;22.30;51.70;;;;;;5114856;28;20337;-48
2021/12/15 15:10:35;;;;;;;;;;;22.30;51.70;;;;;;5113344;28;19989;-53
2021/12/15 15:13:02;;;;;;;;;;;22.40;51.80;;;;;;5096509;28;20383;-57
2021/12/15 15:15:32;;;;;;;;;;;22.30;51.70;;;;;;5114613;28;19989;-54
2021/12/15 15:18:04;;;;;;;;;;;22.30;51.70;;;;;;5114680;28;20405;-54
2021/12/15 15:20:31;;;;;;;;;;;22.30;51.70;;;;;;5114375;28;19928;-49
2021/12/15 15:23:09;;;;;;;;;;;22.30;51.80;;;;;;5114290;28;19930;-54
2021/12/15 15:25:38;;;;;;;;;;;22.30;51.80;;;;;;5095149;28;19924;-53
2021/12/15 15:28:07;;;;;;;;;;;22.30;51.80;;;;;;5096810;28;19931;-53
2021/12/15 15:30:36;;;;;;;;;;;22.30;51.80;;;;;;5114247;28;19930;-53
2021/12/15 15:33:11;;;;;;;;;;;22.30;51.80;;;;;;5114505;28;19931;-55
2021/12/15 15:35:47;;;;;;;;;;;22.20;51.80;;;;;;5114479;28;19930;-51
2021/12/15 15:38:20;;;;;;;;;;;22.30;52.50;;;;;;5114478;28;19924;-57
2021/12/15 15:40:52;;;;;;;;;;;22.20;51.80;;;;;;5113299;28;20006;-52
2021/12/15 15:43:28;;;;;;;;;;;22.20;51.80;;;;;;5114157;28;19924;-56
2021/12/15 15:45:56;;;;;;;;;;;22.20;51.80;;;;;;5113948;28;20421;-49
2021/12/15 15:48:25;;;;;;;;;;;22.30;51.90;;;;;;5114088;28;19978;-52
2021/12/15 15:51:00;;;;;;;;;;;22.20;51.80;;;;;;5114016;28;19924;-56
2021/12/15 15:53:27;;;;;;;;;;;22.20;51.80;;;;;;5113888;28;19924;-48
2021/12/15 15:56:03;;;;;;;;;;;22.20;51.80;;;;;;5112816;28;19994;-55
2021/12/15 15:58:30;;;;;;;;;;;22.20;51.90;;;;;;5114881;28;19924;-58
2021/12/15 16:00:59;;;;;;;;;;;22.20;51.90;;;;;;5118410;28;19924;-47
2021/12/15 16:03:28;;;;;;;;;;;22.20;51.90;;;;;;5118635;28;19924;-50
2021/12/15 16:05:57;;;;;;;;;;;22.20;51.90;;;;;;5117990;28;19931;-54